sensor_id;sensor_type;location;lat;lon;timestamp;P1;durP1;ratioP1;P2;durP2;ratioP2
20731;SDS011;10527;52.124;5.196;2022-09-21T00:01:28;2.17;;;1.42;;
20731;SDS011;10527;52.124;5.196;2022-09-21T00:03:58;4.88;;;1.77;;
20731;SDS011;10527;52.124;5.196;2022-09-21T00:06:29;3.28;;;1.48;;
20731;SDS011;10527;52.124;5.196;2022-09-21T00:08:59;2.30;;;1.50;;
20731;SDS011;10527;52.124;5.196;2022-09-21T00:11:29;6.40;;;1.98;;
20731;SDS011;10527;52.124;5.196;2022-09-21T00:14:01;2.55;;;1.40;;
20731;SDS011;10527;52.124;5.196;2022-09-21T00:16:40;1.50;;;1.20;;
20731;SDS011;10527;52.124;5.196;2022-09-21T00:19:08;3.20;;;1.60;;
20731;SDS011;10527;52.124;5.196;2022-09-21T00:21:37;6.75;;;1.67;;
20731;SDS011;10527;52.124;5.196;2022-09-21T00:24:05;2.78;;;1.50;;
20731;SDS011;10527;52.124;5.196;2022-09-21T00:26:32;3.42;;;1.67;;
20731;SDS011;10527;52.124;5.196;2022-09-21T00:29:00;3.25;;;1.67;;
20731;SDS011;10527;52.124;5.196;2022-09-21T00:31:29;3.42;;;1.48;;
20731;SDS011;10527;52.124;5.196;2022-09-21T00:33:57;3.20;;;1.73;;
20731;SDS011;10527;52.124;5.196;2022-09-21T00:36:25;1.92;;;1.50;;
20731;SDS011;10527;52.124;5.196;2022-09-21T00:38:54;3.17;;;1.27;;
20731;SDS011;10527;52.124;5.196;2022-09-21T00:41:26;7.18;;;1.90;;
20731;SDS011;10527;52.124;5.196;2022-09-21T00:47:00;3.55;;;2.15;;
20731;SDS011;10527;52.124;5.196;2022-09-21T00:49:37;3.92;;;2.70;;
20731;SDS011;10527;52.124;5.196;2022-09-21T00:52:07;4.50;;;2.15;;
20731;SDS011;10527;52.124;5.196;2022-09-21T00:54:41;4.07;;;2.08;;
20731;SDS011;10527;52.124;5.196;2022-09-21T00:57:18;4.32;;;1.90;;
20731;SDS011;10527;52.124;5.196;2022-09-21T00:59:49;5.27;;;2.43;;
20731;SDS011;10527;52.124;5.196;2022-09-21T01:02:20;3.10;;;2.00;;
20731;SDS011;10527;52.124;5.196;2022-09-21T01:04:48;3.40;;;2.20;;
20731;SDS011;10527;52.124;5.196;2022-09-21T01:07:20;3.27;;;1.60;;
20731;SDS011;10527;52.124;5.196;2022-09-21T01:09:56;3.17;;;1.75;;
20731;SDS011;10527;52.124;5.196;2022-09-21T01:32:32;3.23;;;1.30;;
20731;SDS011;10527;52.124;5.196;2022-09-21T01:38:07;2.23;;;1.40;;
20731;SDS011;10527;52.124;5.196;2022-09-21T01:40:44;3.00;;;1.70;;
20731;SDS011;10527;52.124;5.196;2022-09-21T01:43:22;2.77;;;1.20;;
20731;SDS011;10527;52.124;5.196;2022-09-21T01:45:56;3.47;;;1.30;;
20731;SDS011;10527;52.124;5.196;2022-09-21T01:48:32;2.33;;;1.33;;
20731;SDS011;10527;52.124;5.196;2022-09-21T01:51:06;4.00;;;1.30;;
20731;SDS011;10527;52.124;5.196;2022-09-21T01:56:15;3.40;;;1.20;;
20731;SDS011;10527;52.124;5.196;2022-09-21T01:59:08;1.87;;;1.17;;
20731;SDS011;10527;52.124;5.196;2022-09-21T02:01:54;2.90;;;1.20;;
20731;SDS011;10527;52.124;5.196;2022-09-21T02:04:38;2.83;;;1.10;;
20731;SDS011;10527;52.124;5.196;2022-09-21T02:07:05;2.20;;;1.20;;
20731;SDS011;10527;52.124;5.196;2022-09-21T02:09:34;2.40;;;1.20;;
20731;SDS011;10527;52.124;5.196;2022-09-21T02:12:02;2.60;;;1.43;;
20731;SDS011;10527;52.124;5.196;2022-09-21T02:14:30;2.13;;;1.40;;
20731;SDS011;10527;52.124;5.196;2022-09-21T02:22:40;2.63;;;1.20;;
20731;SDS011;10527;52.124;5.196;2022-09-21T02:33:50;2.60;;;1.17;;
20731;SDS011;10527;52.124;5.196;2022-09-21T02:36:55;1.83;;;1.10;;
20731;SDS011;10527;52.124;5.196;2022-09-21T02:39:34;2.07;;;1.20;;
20731;SDS011;10527;52.124;5.196;2022-09-21T02:42:14;2.07;;;1.03;;
20731;SDS011;10527;52.124;5.196;2022-09-21T02:44:56;1.97;;;1.00;;
20731;SDS011;10527;52.124;5.196;2022-09-21T02:47:45;3.43;;;1.50;;
20731;SDS011;10527;52.124;5.196;2022-09-21T02:50:26;2.10;;;1.10;;
20731;SDS011;10527;52.124;5.196;2022-09-21T02:53:04;2.47;;;1.13;;
20731;SDS011;10527;52.124;5.196;2022-09-21T02:55:33;2.17;;;1.03;;
20731;SDS011;10527;52.124;5.196;2022-09-21T02:58:03;2.73;;;1.20;;
20731;SDS011;10527;52.124;5.196;2022-09-21T03:00:36;1.20;;;1.00;;
20731;SDS011;10527;52.124;5.196;2022-09-21T03:03:13;2.27;;;1.30;;
20731;SDS011;10527;52.124;5.196;2022-09-21T03:05:47;1.97;;;1.13;;
20731;SDS011;10527;52.124;5.196;2022-09-21T03:08:18;1.53;;;1.10;;
20731;SDS011;10527;52.124;5.196;2022-09-21T03:10:45;3.73;;;1.30;;
20731;SDS011;10527;52.124;5.196;2022-09-21T03:13:15;1.70;;;1.00;;
20731;SDS011;10527;52.124;5.196;2022-09-21T03:15:43;1.97;;;1.10;;
20731;SDS011;10527;52.124;5.196;2022-09-21T03:18:12;2.00;;;1.07;;
20731;SDS011;10527;52.124;5.196;2022-09-21T03:20:42;1.77;;;1.57;;
20731;SDS011;10527;52.124;5.196;2022-09-21T03:23:11;2.07;;;1.37;;
20731;SDS011;10527;52.124;5.196;2022-09-21T03:25:39;1.60;;;1.10;;
20731;SDS011;10527;52.124;5.196;2022-09-21T03:28:10;1.30;;;1.00;;
20731;SDS011;10527;52.124;5.196;2022-09-21T03:30:38;3.00;;;1.40;;
20731;SDS011;10527;52.124;5.196;2022-09-21T03:33:05;1.40;;;1.20;;
20731;SDS011;10527;52.124;5.196;2022-09-21T03:35:33;5.50;;;1.30;;
20731;SDS011;10527;52.124;5.196;2022-09-21T03:38:00;3.73;;;1.60;;
20731;SDS011;10527;52.124;5.196;2022-09-21T03:40:27;3.17;;;1.30;;
20731;SDS011;10527;52.124;5.196;2022-09-21T03:42:54;3.40;;;1.50;;
20731;SDS011;10527;52.124;5.196;2022-09-21T03:45:21;2.80;;;1.60;;
20731;SDS011;10527;52.124;5.196;2022-09-21T03:47:48;2.00;;;1.60;;
20731;SDS011;10527;52.124;5.196;2022-09-21T03:50:15;2.57;;;1.60;;
20731;SDS011;10527;52.124;5.196;2022-09-21T03:52:42;3.23;;;1.70;;
20731;SDS011;10527;52.124;5.196;2022-09-21T03:55:09;3.47;;;1.60;;
20731;SDS011;10527;52.124;5.196;2022-09-21T03:57:36;2.83;;;1.57;;
20731;SDS011;10527;52.124;5.196;2022-09-21T04:00:04;3.33;;;1.43;;
20731;SDS011;10527;52.124;5.196;2022-09-21T04:02:36;2.00;;;1.47;;
20731;SDS011;10527;52.124;5.196;2022-09-21T04:05:09;1.47;;;1.10;;
20731;SDS011;10527;52.124;5.196;2022-09-21T04:07:43;1.67;;;1.20;;
20731;SDS011;10527;52.124;5.196;2022-09-21T04:10:14;5.73;;;1.83;;
20731;SDS011;10527;52.124;5.196;2022-09-21T04:12:45;1.50;;;1.10;;
20731;SDS011;10527;52.124;5.196;2022-09-21T04:15:14;3.57;;;1.50;;
20731;SDS011;10527;52.124;5.196;2022-09-21T04:17:49;1.67;;;1.23;;
20731;SDS011;10527;52.124;5.196;2022-09-21T04:20:17;2.93;;;1.30;;
20731;SDS011;10527;52.124;5.196;2022-09-21T04:22:44;1.57;;;1.27;;
20731;SDS011;10527;52.124;5.196;2022-09-21T04:25:12;2.37;;;1.20;;
20731;SDS011;10527;52.124;5.196;2022-09-21T04:27:40;2.17;;;1.33;;
20731;SDS011;10527;52.124;5.196;2022-09-21T04:30:09;2.60;;;1.20;;
20731;SDS011;10527;52.124;5.196;2022-09-21T04:32:38;1.87;;;1.10;;
20731;SDS011;10527;52.124;5.196;2022-09-21T04:35:05;3.50;;;1.30;;
20731;SDS011;10527;52.124;5.196;2022-09-21T04:37:33;1.97;;;1.20;;
20731;SDS011;10527;52.124;5.196;2022-09-21T04:40:00;2.57;;;1.37;;
20731;SDS011;10527;52.124;5.196;2022-09-21T04:42:29;1.73;;;1.30;;
20731;SDS011;10527;52.124;5.196;2022-09-21T04:44:56;1.70;;;1.40;;
20731;SDS011;10527;52.124;5.196;2022-09-21T04:47:23;1.77;;;1.13;;
20731;SDS011;10527;52.124;5.196;2022-09-21T04:49:50;2.90;;;1.50;;
20731;SDS011;10527;52.124;5.196;2022-09-21T04:52:18;3.63;;;1.20;;
20731;SDS011;10527;52.124;5.196;2022-09-21T04:54:45;1.87;;;1.30;;
20731;SDS011;10527;52.124;5.196;2022-09-21T04:57:13;1.10;;;0.97;;
20731;SDS011;10527;52.124;5.196;2022-09-21T04:59:40;4.00;;;1.60;;
20731;SDS011;10527;52.124;5.196;2022-09-21T05:02:07;3.07;;;1.30;;
20731;SDS011;10527;52.124;5.196;2022-09-21T05:04:35;2.50;;;1.33;;
20731;SDS011;10527;52.124;5.196;2022-09-21T05:07:02;1.87;;;1.30;;
20731;SDS011;10527;52.124;5.196;2022-09-21T05:09:29;3.00;;;1.60;;
20731;SDS011;10527;52.124;5.196;2022-09-21T05:12:14;1.97;;;1.40;;
20731;SDS011;10527;52.124;5.196;2022-09-21T05:14:40;3.33;;;1.50;;
20731;SDS011;10527;52.124;5.196;2022-09-21T05:17:10;3.17;;;1.30;;
20731;SDS011;10527;52.124;5.196;2022-09-21T05:19:37;2.47;;;1.03;;
20731;SDS011;10527;52.124;5.196;2022-09-21T05:22:05;3.87;;;1.43;;
20731;SDS011;10527;52.124;5.196;2022-09-21T05:24:31;2.27;;;1.27;;
20731;SDS011;10527;52.124;5.196;2022-09-21T05:26:58;2.70;;;1.23;;
20731;SDS011;10527;52.124;5.196;2022-09-21T05:29:29;2.53;;;1.20;;
20731;SDS011;10527;52.124;5.196;2022-09-21T05:32:04;1.57;;;1.33;;
20731;SDS011;10527;52.124;5.196;2022-09-21T05:40:27;1.70;;;1.10;;
20731;SDS011;10527;52.124;5.196;2022-09-21T05:42:55;2.37;;;1.60;;
20731;SDS011;10527;52.124;5.196;2022-09-21T05:45:22;5.67;;;1.47;;
20731;SDS011;10527;52.124;5.196;2022-09-21T05:47:52;2.37;;;1.37;;
20731;SDS011;10527;52.124;5.196;2022-09-21T05:53:40;6.53;;;2.20;;
20731;SDS011;10527;52.124;5.196;2022-09-21T06:05:40;4.07;;;1.80;;
20731;SDS011;10527;52.124;5.196;2022-09-21T06:08:09;2.77;;;1.27;;
20731;SDS011;10527;52.124;5.196;2022-09-21T06:10:35;5.70;;;1.90;;
20731;SDS011;10527;52.124;5.196;2022-09-21T06:13:02;4.17;;;1.80;;
20731;SDS011;10527;52.124;5.196;2022-09-21T06:15:29;3.77;;;1.77;;
20731;SDS011;10527;52.124;5.196;2022-09-21T06:17:56;3.73;;;1.60;;
20731;SDS011;10527;52.124;5.196;2022-09-21T06:20:24;2.13;;;1.43;;
20731;SDS011;10527;52.124;5.196;2022-09-21T06:22:52;1.97;;;1.40;;
20731;SDS011;10527;52.124;5.196;2022-09-21T06:25:29;1.83;;;1.53;;
20731;SDS011;10527;52.124;5.196;2022-09-21T06:28:12;1.80;;;1.20;;
20731;SDS011;10527;52.124;5.196;2022-09-21T06:30:39;2.80;;;1.63;;
20731;SDS011;10527;52.124;5.196;2022-09-21T06:33:08;2.77;;;1.17;;
20731;SDS011;10527;52.124;5.196;2022-09-21T06:35:35;2.00;;;1.30;;
20731;SDS011;10527;52.124;5.196;2022-09-21T06:38:09;2.27;;;1.37;;
20731;SDS011;10527;52.124;5.196;2022-09-21T06:40:36;2.50;;;1.50;;
20731;SDS011;10527;52.124;5.196;2022-09-21T06:43:04;4.17;;;2.07;;
20731;SDS011;10527;52.124;5.196;2022-09-21T06:45:34;5.23;;;1.77;;
20731;SDS011;10527;52.124;5.196;2022-09-21T06:48:04;3.10;;;1.87;;
20731;SDS011;10527;52.124;5.196;2022-09-21T06:50:31;4.83;;;2.30;;
20731;SDS011;10527;52.124;5.196;2022-09-21T06:52:59;1.53;;;1.30;;
20731;SDS011;10527;52.124;5.196;2022-09-21T06:55:30;1.90;;;1.67;;
20731;SDS011;10527;52.124;5.196;2022-09-21T06:58:03;2.87;;;1.50;;
20731;SDS011;10527;52.124;5.196;2022-09-21T07:00:30;2.77;;;1.80;;
20731;SDS011;10527;52.124;5.196;2022-09-21T07:03:05;3.87;;;1.30;;
20731;SDS011;10527;52.124;5.196;2022-09-21T07:05:37;2.10;;;1.40;;
20731;SDS011;10527;52.124;5.196;2022-09-21T07:08:05;3.83;;;1.73;;
20731;SDS011;10527;52.124;5.196;2022-09-21T07:10:59;1.77;;;1.27;;
20731;SDS011;10527;52.124;5.196;2022-09-21T07:13:28;5.10;;;1.53;;
20731;SDS011;10527;52.124;5.196;2022-09-21T07:15:55;3.17;;;1.60;;
20731;SDS011;10527;52.124;5.196;2022-09-21T07:18:27;2.20;;;1.67;;
20731;SDS011;10527;52.124;5.196;2022-09-21T07:20:55;6.27;;;2.50;;
20731;SDS011;10527;52.124;5.196;2022-09-21T07:23:22;4.87;;;1.60;;
20731;SDS011;10527;52.124;5.196;2022-09-21T07:25:51;4.33;;;1.20;;
20731;SDS011;10527;52.124;5.196;2022-09-21T07:28:18;3.03;;;1.73;;
20731;SDS011;10527;52.124;5.196;2022-09-21T07:30:45;2.57;;;1.60;;
20731;SDS011;10527;52.124;5.196;2022-09-21T07:33:11;3.17;;;1.90;;
20731;SDS011;10527;52.124;5.196;2022-09-21T07:35:38;3.20;;;1.27;;
20731;SDS011;10527;52.124;5.196;2022-09-21T07:38:05;4.37;;;1.40;;
20731;SDS011;10527;52.124;5.196;2022-09-21T07:40:33;2.60;;;1.10;;
20731;SDS011;10527;52.124;5.196;2022-09-21T07:43:03;2.03;;;1.07;;
20731;SDS011;10527;52.124;5.196;2022-09-21T07:45:30;3.53;;;1.20;;
20731;SDS011;10527;52.124;5.196;2022-09-21T07:48:04;2.20;;;1.03;;
20731;SDS011;10527;52.124;5.196;2022-09-21T07:50:32;2.90;;;0.80;;
20731;SDS011;10527;52.124;5.196;2022-09-21T07:53:02;3.63;;;1.10;;
20731;SDS011;10527;52.124;5.196;2022-09-21T07:55:29;3.60;;;0.93;;
20731;SDS011;10527;52.124;5.196;2022-09-21T07:57:56;5.40;;;2.80;;
20731;SDS011;10527;52.124;5.196;2022-09-21T08:00:41;1.00;;;0.80;;
20731;SDS011;10527;52.124;5.196;2022-09-21T08:03:08;4.23;;;1.00;;
20731;SDS011;10527;52.124;5.196;2022-09-21T08:05:36;3.53;;;1.00;;
20731;SDS011;10527;52.124;5.196;2022-09-21T08:08:02;3.50;;;0.97;;
20731;SDS011;10527;52.124;5.196;2022-09-21T08:10:29;8.75;;;1.75;;
20731;SDS011;10527;52.124;5.196;2022-09-21T08:12:57;2.15;;;1.00;;
20731;SDS011;10527;52.124;5.196;2022-09-21T08:15:25;2.40;;;0.80;;
20731;SDS011;10527;52.124;5.196;2022-09-21T08:18:12;2.35;;;0.88;;
20731;SDS011;10527;52.124;5.196;2022-09-21T08:20:39;2.13;;;1.30;;
20731;SDS011;10527;52.124;5.196;2022-09-21T08:23:06;3.22;;;0.88;;
20731;SDS011;10527;52.124;5.196;2022-09-21T08:25:33;2.10;;;0.52;;
20731;SDS011;10527;52.124;5.196;2022-09-21T08:28:00;4.80;;;0.73;;
20731;SDS011;10527;52.124;5.196;2022-09-21T08:30:34;1.52;;;0.50;;
20731;SDS011;10527;52.124;5.196;2022-09-21T08:33:00;3.35;;;0.50;;
20731;SDS011;10527;52.124;5.196;2022-09-21T08:35:28;3.15;;;0.65;;
20731;SDS011;10527;52.124;5.196;2022-09-21T08:37:55;1.88;;;0.70;;
20731;SDS011;10527;52.124;5.196;2022-09-21T08:40:22;1.67;;;0.40;;
20731;SDS011;10527;52.124;5.196;2022-09-21T08:42:58;1.88;;;0.55;;
20731;SDS011;10527;52.124;5.196;2022-09-21T08:45:38;2.83;;;0.60;;
20731;SDS011;10527;52.124;5.196;2022-09-21T08:51:14;2.83;;;0.60;;
20731;SDS011;10527;52.124;5.196;2022-09-21T08:53:49;4.45;;;1.23;;
20731;SDS011;10527;52.124;5.196;2022-09-21T08:56:23;3.30;;;0.70;;
20731;SDS011;10527;52.124;5.196;2022-09-21T08:59:12;1.70;;;0.30;;
20731;SDS011;10527;52.124;5.196;2022-09-21T09:01:49;2.05;;;0.38;;
20731;SDS011;10527;52.124;5.196;2022-09-21T09:16:38;2.95;;;0.40;;
20731;SDS011;10527;52.124;5.196;2022-09-21T09:22:33;3.72;;;0.50;;
20731;SDS011;10527;52.124;5.196;2022-09-21T09:25:14;2.60;;;0.75;;
20731;SDS011;10527;52.124;5.196;2022-09-21T09:27:53;3.38;;;0.98;;
20731;SDS011;10527;52.124;5.196;2022-09-21T09:30:27;3.30;;;0.68;;
20731;SDS011;10527;52.124;5.196;2022-09-21T09:50:15;2.72;;;0.38;;
20731;SDS011;10527;52.124;5.196;2022-09-21T09:53:10;1.70;;;0.35;;
20731;SDS011;10527;52.124;5.196;2022-09-21T09:55:44;1.55;;;0.40;;
20731;SDS011;10527;52.124;5.196;2022-09-21T09:58:18;1.90;;;0.50;;
20731;SDS011;10527;52.124;5.196;2022-09-21T10:00:53;2.78;;;0.40;;
20731;SDS011;10527;52.124;5.196;2022-09-21T10:03:24;3.22;;;0.50;;
20731;SDS011;10527;52.124;5.196;2022-09-21T10:05:53;3.10;;;0.30;;
20731;SDS011;10527;52.124;5.196;2022-09-21T10:11:12;1.25;;;0.30;;
20731;SDS011;10527;52.124;5.196;2022-09-21T10:13:42;4.53;;;0.52;;
20731;SDS011;10527;52.124;5.196;2022-09-21T10:16:13;2.63;;;0.60;;
20731;SDS011;10527;52.124;5.196;2022-09-21T10:21:38;2.50;;;0.40;;
20731;SDS011;10527;52.124;5.196;2022-09-21T10:24:21;2.10;;;0.30;;
20731;SDS011;10527;52.124;5.196;2022-09-21T10:27:05;5.75;;;0.57;;
20731;SDS011;10527;52.124;5.196;2022-09-21T10:29:40;1.20;;;0.40;;
20731;SDS011;10527;52.124;5.196;2022-09-21T10:37:39;3.45;;;0.98;;
20731;SDS011;10527;52.124;5.196;2022-09-21T10:42:55;4.43;;;0.40;;
20731;SDS011;10527;52.124;5.196;2022-09-21T10:45:29;3.92;;;0.70;;
20731;SDS011;10527;52.124;5.196;2022-09-21T10:48:11;3.08;;;0.32;;
20731;SDS011;10527;52.124;5.196;2022-09-21T10:55:54;2.95;;;1.20;;
20731;SDS011;10527;52.124;5.196;2022-09-21T10:59:08;4.65;;;0.43;;
20731;SDS011;10527;52.124;5.196;2022-09-21T11:01:50;2.22;;;0.43;;
20731;SDS011;10527;52.124;5.196;2022-09-21T11:06:54;2.95;;;0.50;;
20731;SDS011;10527;52.124;5.196;2022-09-21T11:09:33;0.73;;;0.30;;
20731;SDS011;10527;52.124;5.196;2022-09-21T11:18:45;1.33;;;0.50;;
20731;SDS011;10527;52.124;5.196;2022-09-21T11:24:36;2.72;;;0.40;;
20731;SDS011;10527;52.124;5.196;2022-09-21T11:30:04;4.03;;;0.70;;
20731;SDS011;10527;52.124;5.196;2022-09-21T11:47:10;2.95;;;0.57;;
20731;SDS011;10527;52.124;5.196;2022-09-21T11:55:47;1.90;;;0.60;;
20731;SDS011;10527;52.124;5.196;2022-09-21T12:04:59;2.38;;;0.75;;
20731;SDS011;10527;52.124;5.196;2022-09-21T12:17:31;1.83;;;0.40;;
20731;SDS011;10527;52.124;5.196;2022-09-21T12:22:41;2.63;;;0.55;;
20731;SDS011;10527;52.124;5.196;2022-09-21T12:25:19;1.45;;;0.50;;
20731;SDS011;10527;52.124;5.196;2022-09-21T12:31:13;1.38;;;0.38;;
20731;SDS011;10527;52.124;5.196;2022-09-21T12:34:02;1.80;;;0.47;;
20731;SDS011;10527;52.124;5.196;2022-09-21T12:39:54;1.40;;;0.40;;
20731;SDS011;10527;52.124;5.196;2022-09-21T12:43:19;3.38;;;0.50;;
20731;SDS011;10527;52.124;5.196;2022-09-21T12:49:07;2.50;;;0.50;;
20731;SDS011;10527;52.124;5.196;2022-09-21T12:51:47;2.17;;;0.60;;
20731;SDS011;10527;52.124;5.196;2022-09-21T12:54:27;3.70;;;1.20;;
20731;SDS011;10527;52.124;5.196;2022-09-21T13:00:51;0.50;;;0.22;;
20731;SDS011;10527;52.124;5.196;2022-09-21T13:12:30;0.35;;;0.22;;
20731;SDS011;10527;52.124;5.196;2022-09-21T13:18:02;0.43;;;0.20;;
20731;SDS011;10527;52.124;5.196;2022-09-21T13:20:36;1.80;;;0.60;;
20731;SDS011;10527;52.124;5.196;2022-09-21T13:23:36;0.70;;;0.30;;
20731;SDS011;10527;52.124;5.196;2022-09-21T13:26:08;3.88;;;0.60;;
20731;SDS011;10527;52.124;5.196;2022-09-21T13:28:40;1.00;;;0.30;;
20731;SDS011;10527;52.124;5.196;2022-09-21T13:40:29;1.70;;;0.40;;
20731;SDS011;10527;52.124;5.196;2022-09-21T13:42:47;0.80;;;0.35;;
20731;SDS011;10527;52.124;5.196;2022-09-21T13:47:44;1.30;;;0.38;;
20731;SDS011;10527;52.124;5.196;2022-09-21T13:53:04;0.88;;;0.30;;
20731;SDS011;10527;52.124;5.196;2022-09-21T13:56:00;1.30;;;0.40;;
20731;SDS011;10527;52.124;5.196;2022-09-21T13:58:41;3.60;;;0.35;;
20731;SDS011;10527;52.124;5.196;2022-09-21T14:01:15;1.35;;;0.20;;
20731;SDS011;10527;52.124;5.196;2022-09-21T14:04:18;2.05;;;0.40;;
20731;SDS011;10527;52.124;5.196;2022-09-21T14:06:55;4.38;;;0.50;;
20731;SDS011;10527;52.124;5.196;2022-09-21T14:09:30;2.35;;;0.30;;
20731;SDS011;10527;52.124;5.196;2022-09-21T14:12:16;2.63;;;0.40;;
20731;SDS011;10527;52.124;5.196;2022-09-21T14:17:43;1.35;;;0.30;;
20731;SDS011;10527;52.124;5.196;2022-09-21T14:20:32;1.10;;;0.40;;
20731;SDS011;10527;52.124;5.196;2022-09-21T14:25:49;1.13;;;0.50;;
20731;SDS011;10527;52.124;5.196;2022-09-21T14:31:28;3.38;;;1.13;;
20731;SDS011;10527;52.124;5.196;2022-09-21T14:34:03;1.27;;;0.30;;
20731;SDS011;10527;52.124;5.196;2022-09-21T14:36:41;2.95;;;0.43;;
20731;SDS011;10527;52.124;5.196;2022-09-21T14:39:17;3.33;;;0.50;;
20731;SDS011;10527;52.124;5.196;2022-09-21T14:41:57;3.38;;;0.60;;
20731;SDS011;10527;52.124;5.196;2022-09-21T14:44:39;6.63;;;0.57;;
20731;SDS011;10527;52.124;5.196;2022-09-21T14:47:31;2.95;;;1.15;;
20731;SDS011;10527;52.124;5.196;2022-09-21T15:02:11;0.77;;;0.30;;
20731;SDS011;10527;52.124;5.196;2022-09-21T15:05:02;1.60;;;0.40;;
20731;SDS011;10527;52.124;5.196;2022-09-21T15:11:07;3.03;;;0.50;;
20731;SDS011;10527;52.124;5.196;2022-09-21T15:17:00;1.92;;;0.40;;
20731;SDS011;10527;52.124;5.196;2022-09-21T15:19:58;0.73;;;0.30;;
20731;SDS011;10527;52.124;5.196;2022-09-21T15:22:43;1.67;;;0.30;;
20731;SDS011;10527;52.124;5.196;2022-09-21T15:25:11;3.67;;;0.65;;
20731;SDS011;10527;52.124;5.196;2022-09-21T15:27:41;2.83;;;0.40;;
20731;SDS011;10527;52.124;5.196;2022-09-21T15:30:22;1.98;;;0.45;;
20731;SDS011;10527;52.124;5.196;2022-09-21T15:32:55;1.50;;;1.00;;
20731;SDS011;10527;52.124;5.196;2022-09-21T15:35:31;0.90;;;0.43;;
20731;SDS011;10527;52.124;5.196;2022-09-21T15:37:58;1.80;;;0.55;;
20731;SDS011;10527;52.124;5.196;2022-09-21T15:40:33;3.97;;;0.90;;
20731;SDS011;10527;52.124;5.196;2022-09-21T15:48:23;0.50;;;0.40;;
20731;SDS011;10527;52.124;5.196;2022-09-21T15:51:43;1.23;;;0.50;;
20731;SDS011;10527;52.124;5.196;2022-09-21T15:54:10;1.08;;;0.30;;
20731;SDS011;10527;52.124;5.196;2022-09-21T15:57:03;1.23;;;0.40;;
20731;SDS011;10527;52.124;5.196;2022-09-21T15:59:50;3.78;;;0.55;;
20731;SDS011;10527;52.124;5.196;2022-09-21T16:02:22;0.82;;;0.40;;
20731;SDS011;10527;52.124;5.196;2022-09-21T16:04:55;5.05;;;1.17;;
20731;SDS011;10527;52.124;5.196;2022-09-21T16:09:58;4.38;;;1.52;;
20731;SDS011;10527;52.124;5.196;2022-09-21T16:15:27;3.58;;;1.00;;
20731;SDS011;10527;52.124;5.196;2022-09-21T16:18:00;2.38;;;0.88;;
20731;SDS011;10527;52.124;5.196;2022-09-21T16:20:42;1.90;;;0.85;;
20731;SDS011;10527;52.124;5.196;2022-09-21T16:23:21;2.58;;;1.20;;
20731;SDS011;10527;52.124;5.196;2022-09-21T16:25:55;4.72;;;2.70;;
20731;SDS011;10527;52.124;5.196;2022-09-21T16:29:21;4.35;;;2.22;;
20731;SDS011;10527;52.124;5.196;2022-09-21T16:34:44;2.92;;;0.82;;
20731;SDS011;10527;52.124;5.196;2022-09-21T16:39:52;2.75;;;0.60;;
20731;SDS011;10527;52.124;5.196;2022-09-21T16:42:24;3.90;;;0.93;;
20731;SDS011;10527;52.124;5.196;2022-09-21T16:44:58;5.63;;;2.00;;
20731;SDS011;10527;52.124;5.196;2022-09-21T16:47:26;2.53;;;1.00;;
20731;SDS011;10527;52.124;5.196;2022-09-21T16:49:57;4.07;;;0.90;;
20731;SDS011;10527;52.124;5.196;2022-09-21T16:52:28;2.05;;;0.70;;
20731;SDS011;10527;52.124;5.196;2022-09-21T16:54:56;2.35;;;1.20;;
20731;SDS011;10527;52.124;5.196;2022-09-21T16:57:23;3.42;;;0.70;;
20731;SDS011;10527;52.124;5.196;2022-09-21T17:00:09;1.83;;;0.57;;
20731;SDS011;10527;52.124;5.196;2022-09-21T17:02:38;1.52;;;0.68;;
20731;SDS011;10527;52.124;5.196;2022-09-21T17:05:08;3.33;;;0.80;;
20731;SDS011;10527;52.124;5.196;2022-09-21T17:07:35;3.58;;;1.00;;
20731;SDS011;10527;52.124;5.196;2022-09-21T17:10:08;3.35;;;0.95;;
20731;SDS011;10527;52.124;5.196;2022-09-21T17:12:39;2.42;;;1.13;;
20731;SDS011;10527;52.124;5.196;2022-09-21T17:15:06;2.97;;;1.25;;
20731;SDS011;10527;52.124;5.196;2022-09-21T17:17:37;2.38;;;1.40;;
20731;SDS011;10527;52.124;5.196;2022-09-21T17:20:07;2.83;;;1.48;;
20731;SDS011;10527;52.124;5.196;2022-09-21T17:22:45;3.58;;;1.67;;
20731;SDS011;10527;52.124;5.196;2022-09-21T17:25:12;5.13;;;1.83;;
20731;SDS011;10527;52.124;5.196;2022-09-21T17:27:39;2.70;;;1.67;;
20731;SDS011;10527;52.124;5.196;2022-09-21T17:30:10;3.75;;;1.60;;
20731;SDS011;10527;52.124;5.196;2022-09-21T17:32:40;2.97;;;1.50;;
20731;SDS011;10527;52.124;5.196;2022-09-21T17:35:30;4.68;;;2.20;;
20731;SDS011;10527;52.124;5.196;2022-09-21T17:38:04;3.05;;;1.23;;
20731;SDS011;10527;52.124;5.196;2022-09-21T17:40:39;5.15;;;1.48;;
20731;SDS011;10527;52.124;5.196;2022-09-21T17:49:04;4.60;;;1.98;;
20731;SDS011;10527;52.124;5.196;2022-09-21T17:51:33;3.70;;;1.95;;
20731;SDS011;10527;52.124;5.196;2022-09-21T17:54:21;4.63;;;2.72;;
20731;SDS011;10527;52.124;5.196;2022-09-21T17:59:43;7.82;;;2.40;;
20731;SDS011;10527;52.124;5.196;2022-09-21T18:02:22;6.53;;;2.63;;
20731;SDS011;10527;52.124;5.196;2022-09-21T18:05:02;7.70;;;2.45;;
20731;SDS011;10527;52.124;5.196;2022-09-21T18:07:52;5.22;;;2.95;;
20731;SDS011;10527;52.124;5.196;2022-09-21T18:10:20;8.18;;;4.18;;
20731;SDS011;10527;52.124;5.196;2022-09-21T18:18:36;15.52;;;10.15;;
20731;SDS011;10527;52.124;5.196;2022-09-21T18:22:05;13.70;;;8.80;;
20731;SDS011;10527;52.124;5.196;2022-09-21T18:25:08;17.33;;;9.80;;
20731;SDS011;10527;52.124;5.196;2022-09-21T18:27:51;14.18;;;8.77;;
20731;SDS011;10527;52.124;5.196;2022-09-21T18:30:24;16.50;;;10.80;;
20731;SDS011;10527;52.124;5.196;2022-09-21T18:33:36;17.30;;;11.93;;
20731;SDS011;10527;52.124;5.196;2022-09-21T18:36:02;14.65;;;10.05;;
20731;SDS011;10527;52.124;5.196;2022-09-21T18:38:43;16.63;;;11.82;;
20731;SDS011;10527;52.124;5.196;2022-09-21T18:41:45;37.28;;;27.63;;
20731;SDS011;10527;52.124;5.196;2022-09-21T18:47:45;22.45;;;18.17;;
20731;SDS011;10527;52.124;5.196;2022-09-21T18:50:50;17.38;;;13.60;;
20731;SDS011;10527;52.124;5.196;2022-09-21T18:56:24;11.90;;;8.35;;
20731;SDS011;10527;52.124;5.196;2022-09-21T18:59:00;9.32;;;6.70;;
20731;SDS011;10527;52.124;5.196;2022-09-21T19:01:28;8.30;;;5.60;;
20731;SDS011;10527;52.124;5.196;2022-09-21T19:03:59;9.57;;;5.55;;
20731;SDS011;10527;52.124;5.196;2022-09-21T19:06:32;10.23;;;6.00;;
20731;SDS011;10527;52.124;5.196;2022-09-21T19:15:08;9.35;;;5.20;;
20731;SDS011;10527;52.124;5.196;2022-09-21T19:21:04;3.63;;;2.95;;
20731;SDS011;10527;52.124;5.196;2022-09-21T19:27:06;5.72;;;2.95;;
20731;SDS011;10527;52.124;5.196;2022-09-21T19:30:16;4.43;;;2.85;;
20731;SDS011;10527;52.124;5.196;2022-09-21T19:32:41;5.53;;;2.75;;
20731;SDS011;10527;52.124;5.196;2022-09-21T19:35:28;7.15;;;3.25;;
20731;SDS011;10527;52.124;5.196;2022-09-21T19:37:58;9.35;;;4.03;;
20731;SDS011;10527;52.124;5.196;2022-09-21T19:40:28;10.68;;;5.60;;
20731;SDS011;10527;52.124;5.196;2022-09-21T19:48:50;7.28;;;4.80;;
20731;SDS011;10527;52.124;5.196;2022-09-21T19:51:37;8.55;;;5.30;;
20731;SDS011;10527;52.124;5.196;2022-09-21T19:54:19;25.40;;;16.95;;
20731;SDS011;10527;52.124;5.196;2022-09-21T20:00:06;19.75;;;12.38;;
20731;SDS011;10527;52.124;5.196;2022-09-21T20:02:47;13.60;;;8.05;;
20731;SDS011;10527;52.124;5.196;2022-09-21T20:05:39;7.55;;;4.53;;
20731;SDS011;10527;52.124;5.196;2022-09-21T20:08:24;5.18;;;3.20;;
20731;SDS011;10527;52.124;5.196;2022-09-21T20:16:51;3.83;;;2.40;;
20731;SDS011;10527;52.124;5.196;2022-09-21T20:22:09;6.90;;;3.05;;
20731;SDS011;10527;52.124;5.196;2022-09-21T20:24:52;3.40;;;2.20;;
20731;SDS011;10527;52.124;5.196;2022-09-21T20:27:48;5.97;;;2.78;;
20731;SDS011;10527;52.124;5.196;2022-09-21T20:30:23;4.72;;;2.60;;
20731;SDS011;10527;52.124;5.196;2022-09-21T20:32:54;3.92;;;2.42;;
20731;SDS011;10527;52.124;5.196;2022-09-21T20:35:26;6.28;;;2.47;;